createdAt,value
2022-09-23T00:00:17.566Z,7.46
2022-09-23T00:03:21.626Z,7.44
2022-09-23T00:06:24.398Z,7.41
2022-09-23T00:09:25.987Z,7.41
2022-09-23T00:12:27.766Z,7.41
2022-09-23T00:15:31.296Z,7.41
2022-09-23T00:18:33.451Z,7.39
2022-09-23T00:21:35.034Z,7.36
2022-09-23T00:24:36.593Z,7.33
2022-09-23T00:27:39.118Z,7.31
2022-09-23T00:30:42.116Z,7.30
2022-09-23T00:33:43.724Z,7.27
2022-09-23T00:36:45.320Z,7.23
2022-09-23T00:39:47.078Z,7.18
2022-09-23T00:42:52.168Z,7.15
2022-09-23T00:45:54.934Z,7.10
2022-09-23T00:49:23.261Z,7.08
2022-09-23T00:52:25.166Z,7.02
2022-09-23T00:55:36.856Z,6.99
2022-09-23T00:58:40.985Z,6.96
2022-09-23T01:01:44.381Z,6.93
2022-09-23T01:04:46.141Z,6.88
2022-09-23T01:07:48.317Z,6.85
2022-09-23T01:11:14.745Z,6.82
2022-09-23T01:14:27.041Z,6.78
2022-09-23T01:17:47.616Z,6.75
2022-09-23T01:20:50.536Z,6.72
2022-09-23T01:24:29.337Z,6.71
2022-09-23T01:28:00.116Z,6.68
2022-09-23T01:31:04.907Z,6.71
2022-09-23T01:34:22.331Z,6.69
2022-09-23T01:37:50.588Z,6.65
2022-09-23T01:41:03.414Z,6.61
2022-09-23T01:44:43.142Z,6.60
2022-09-23T01:48:13.882Z,6.59
2022-09-23T01:51:39.058Z,6.60
2022-09-23T01:54:50.690Z,6.60
2022-09-23T01:58:09.874Z,6.63
2022-09-23T02:01:21.621Z,6.64
2022-09-23T02:04:31.139Z,6.66
2022-09-23T02:07:39.534Z,6.66
2022-09-23T02:10:58.763Z,6.65
2022-09-23T02:14:14.831Z,6.63
2022-09-23T02:17:27.290Z,6.61
2022-09-23T02:20:32.970Z,6.59
2022-09-23T02:23:50.643Z,6.58
2022-09-23T02:26:59.243Z,6.57
2022-09-23T02:30:09.841Z,6.56
2022-09-23T02:33:24.775Z,6.56
2022-09-23T02:37:11.396Z,6.57
2022-09-23T02:40:41.918Z,6.57
2022-09-23T02:43:54.793Z,6.58
2022-09-23T02:46:56.836Z,6.57
2022-09-23T02:49:58.345Z,6.57
2022-09-23T02:53:01.089Z,6.58
2022-09-23T02:56:13.239Z,6.60
2022-09-23T02:59:19.500Z,6.62
2022-09-23T03:02:51.270Z,6.62
2022-09-23T03:05:58.746Z,6.60
2022-09-23T03:09:08.627Z,6.58
2022-09-23T03:12:31.822Z,6.55
2022-09-23T03:15:45.137Z,6.55
2022-09-23T03:18:56.061Z,6.54
2022-09-23T03:22:07.544Z,6.54
2022-09-23T03:25:14.503Z,6.54
2022-09-23T03:28:20.290Z,6.52
2022-09-23T03:31:21.940Z,6.51
2022-09-23T03:34:28.255Z,6.50
2022-09-23T03:37:39.048Z,6.45
2022-09-23T03:40:43.655Z,6.42
2022-09-23T03:43:46.188Z,6.40
2022-09-23T03:46:50.652Z,6.39
2022-09-23T03:49:53.589Z,6.38
2022-09-23T03:52:55.751Z,6.38
2022-09-23T03:55:57.290Z,6.37
2022-09-23T03:58:58.932Z,6.37
2022-09-23T04:02:01.005Z,6.38
2022-09-23T04:05:03.172Z,6.36
2022-09-23T04:08:04.708Z,6.36
2022-09-23T04:11:07.009Z,6.35
2022-09-23T04:14:09.245Z,6.32
2022-09-23T04:17:12.165Z,6.29
2022-09-23T04:20:13.796Z,6.24
2022-09-23T04:23:15.908Z,6.22
2022-09-23T04:26:19.084Z,6.21
2022-09-23T04:29:21.272Z,6.22
2022-09-23T04:32:22.776Z,6.23
2022-09-23T04:35:24.464Z,6.23
2022-09-23T04:38:26.204Z,6.22
2022-09-23T04:41:27.882Z,6.19
2022-09-23T04:44:29.592Z,6.16
2022-09-23T04:47:32.211Z,6.12
2022-09-23T04:50:34.026Z,6.14
2022-09-23T04:53:37.056Z,6.15
2022-09-23T04:56:39.739Z,6.18
2022-09-23T04:59:41.549Z,6.19
2022-09-23T05:02:47.847Z,6.18
2022-09-23T05:05:49.536Z,6.15
2022-09-23T05:08:53.008Z,6.11
2022-09-23T05:11:54.713Z,6.03
2022-09-23T05:14:56.585Z,5.97
2022-09-23T05:17:59.231Z,5.92
2022-09-23T05:21:01.561Z,5.91
2022-09-23T05:24:03.227Z,5.86
2022-09-23T05:27:07.117Z,5.83
2022-09-23T05:30:09.595Z,5.79
2022-09-23T05:33:11.863Z,5.77
2022-09-23T05:36:13.864Z,5.75
2022-09-23T05:39:15.528Z,5.73
2022-09-23T05:42:21.011Z,5.82
2022-09-23T05:45:22.599Z,5.89
2022-09-23T05:48:24.197Z,5.90
2022-09-23T05:51:30.772Z,5.88
2022-09-23T05:54:33.025Z,5.91
2022-09-23T05:57:34.675Z,6.27
2022-09-23T06:00:36.283Z,6.47
2022-09-23T06:03:38.345Z,6.54
2022-09-23T06:06:42.052Z,6.56
2022-09-23T06:09:44.116Z,6.57
2022-09-23T06:12:45.657Z,6.65
2022-09-23T06:15:47.329Z,6.66
2022-09-23T06:18:48.905Z,6.66
2022-09-23T06:21:50.412Z,6.66
2022-09-23T06:24:51.992Z,6.71
2022-09-23T06:27:54.836Z,6.76
2022-09-23T06:31:00.469Z,6.83
2022-09-23T06:34:11.047Z,6.87
2022-09-23T06:37:19.683Z,6.88
2022-09-23T06:40:22.703Z,6.92
2022-09-23T06:43:26.031Z,7.01
2022-09-23T06:46:28.211Z,7.08
2022-09-23T06:49:29.912Z,7.32
2022-09-23T06:52:31.432Z,7.48
2022-09-23T06:55:33.063Z,7.57
2022-09-23T06:58:36.221Z,7.62
2022-09-23T07:01:38.256Z,7.67
2022-09-23T07:04:40.495Z,7.73
2022-09-23T07:07:42.106Z,7.76
2022-09-23T07:10:44.087Z,7.89
2022-09-23T07:13:45.922Z,8.04
2022-09-23T07:16:51.411Z,8.14
2022-09-23T07:19:55.144Z,8.20
2022-09-23T07:22:56.921Z,8.26
2022-09-23T07:25:58.700Z,8.32
2022-09-23T07:29:05.254Z,8.39
2022-09-23T07:32:13.877Z,8.43
2022-09-23T07:35:16.518Z,8.49
2022-09-23T07:38:18.141Z,8.54
2022-09-23T07:41:19.872Z,8.61
2022-09-23T07:44:21.948Z,8.67
2022-09-23T07:47:23.576Z,8.74
2022-09-23T07:50:25.253Z,8.78
2022-09-23T07:53:27.481Z,8.83
2022-09-23T07:56:30.634Z,8.88
2022-09-23T07:59:32.246Z,8.94
2022-09-23T08:02:33.869Z,8.99
2022-09-23T08:05:36.531Z,9.04
2022-09-23T08:08:47.995Z,9.11
2022-09-23T08:11:53.072Z,9.16
2022-09-23T08:14:54.760Z,9.23
2022-09-23T08:17:59.780Z,9.32
2022-09-23T08:21:01.716Z,9.39
2022-09-23T08:24:03.387Z,9.47
2022-09-23T08:27:05.108Z,9.54
2022-09-23T08:30:07.212Z,9.60
2022-09-23T08:33:10.044Z,9.70
2022-09-23T08:36:11.696Z,9.88
2022-09-23T08:39:15.876Z,9.99
2022-09-23T08:42:32.385Z,10.08
2022-09-23T08:45:36.624Z,10.16
2022-09-23T08:48:46.358Z,10.25
2022-09-23T08:51:48.563Z,10.33
2022-09-23T08:54:54.656Z,10.43
2022-09-23T08:58:24.323Z,10.52
2022-09-23T09:01:50.123Z,10.62
2022-09-23T09:05:00.346Z,10.70
2022-09-23T09:08:03.863Z,10.79
2022-09-23T09:11:06.904Z,10.87
2022-09-23T09:14:38.005Z,10.97
2022-09-23T09:18:01.285Z,11.07
2022-09-23T09:21:12.938Z,11.16
2022-09-23T09:24:21.624Z,11.27
2022-09-23T09:27:24.077Z,11.37
2022-09-23T09:30:25.727Z,11.45
2022-09-23T09:33:35.575Z,11.53
2022-09-23T09:37:07.567Z,11.62
2022-09-23T09:40:13.596Z,11.68
2022-09-23T09:43:23.724Z,11.75
2022-09-23T09:46:51.938Z,11.83
2022-09-23T09:50:04.282Z,11.91
2022-09-23T09:53:35.834Z,12.00
2022-09-23T09:56:37.667Z,12.05
2022-09-23T09:59:44.077Z,12.11
2022-09-23T10:02:47.373Z,12.20
2022-09-23T10:05:52.436Z,12.29
2022-09-23T10:09:16.977Z,12.42
2022-09-23T10:12:25.672Z,12.55
2022-09-23T10:15:34.783Z,12.67
2022-09-23T10:18:38.140Z,12.74
2022-09-23T10:21:42.315Z,12.83
2022-09-23T10:24:48.761Z,12.92
2022-09-23T10:27:50.336Z,13.01
2022-09-23T10:31:11.634Z,13.08
2022-09-23T10:34:27.040Z,13.13
2022-09-23T10:37:33.990Z,13.16
2022-09-23T10:40:59.685Z,13.23
2022-09-23T10:44:16.616Z,13.32
2022-09-23T10:47:23.919Z,13.41
2022-09-23T10:50:38.302Z,13.48
2022-09-23T10:54:06.341Z,13.57
2022-09-23T10:57:43.035Z,13.62
2022-09-23T11:01:10.048Z,13.67
2022-09-23T11:04:32.327Z,13.70
2022-09-23T11:07:44.374Z,13.75
2022-09-23T11:10:55.072Z,13.88
2022-09-23T11:14:04.123Z,14.00
2022-09-23T11:17:14.787Z,14.11
2022-09-23T11:20:16.409Z,14.26
2022-09-23T11:23:45.760Z,14.38
2022-09-23T11:27:42.682Z,14.48
2022-09-23T11:31:05.748Z,14.61
2022-09-23T11:34:41.437Z,14.72
2022-09-23T11:37:58.773Z,14.83
2022-09-23T11:41:07.124Z,14.92
2022-09-23T11:44:28.351Z,15.02
2022-09-23T11:47:43.577Z,15.09
2022-09-23T11:50:54.102Z,15.15
2022-09-23T11:54:02.977Z,15.20
2022-09-23T11:57:10.012Z,15.25
2022-09-23T12:00:38.492Z,15.29
2022-09-23T12:03:52.464Z,15.30
2022-09-23T12:07:16.652Z,15.33
2022-09-23T12:10:18.554Z,15.33
2022-09-23T12:13:29.256Z,15.38
2022-09-23T12:16:31.065Z,15.40
2022-09-23T12:20:11.260Z,15.44
2022-09-23T12:23:40.441Z,15.47
2022-09-23T12:26:44.342Z,15.53
2022-09-23T12:29:55.742Z,15.64
2022-09-23T12:33:09.483Z,15.65
2022-09-23T12:36:15.172Z,15.60
2022-09-23T12:39:24.710Z,15.56
2022-09-23T12:42:30.919Z,15.52
2022-09-23T12:45:36.588Z,15.49
2022-09-23T12:48:46.936Z,15.46
2022-09-23T12:52:16.427Z,15.45
2022-09-23T12:55:22.079Z,15.43
2022-09-23T12:58:58.034Z,15.39
2022-09-23T13:02:24.481Z,15.39
2022-09-23T13:05:45.400Z,15.37
2022-09-23T13:08:49.312Z,15.37
2022-09-23T13:11:53.178Z,15.37
2022-09-23T13:15:00.747Z,15.39
2022-09-23T13:18:21.118Z,15.41
2022-09-23T13:22:01.154Z,15.44
2022-09-23T13:25:16.133Z,15.47
2022-09-23T13:28:34.516Z,15.51
2022-09-23T13:31:36.504Z,15.50
2022-09-23T13:34:39.911Z,15.50
2022-09-23T13:37:50.265Z,15.50
2022-09-23T13:40:59.366Z,15.49
2022-09-23T13:44:03.135Z,15.48
2022-09-23T13:47:06.449Z,15.49
2022-09-23T13:50:17.157Z,15.48
2022-09-23T13:53:30.728Z,15.46
2022-09-23T13:56:35.670Z,15.46
2022-09-23T13:59:41.630Z,15.43
2022-09-23T14:02:44.866Z,15.42
2022-09-23T14:05:48.588Z,15.40
2022-09-23T14:08:51.557Z,15.41
2022-09-23T14:11:55.022Z,15.39
2022-09-23T14:14:57.300Z,15.37
2022-09-23T14:18:03.708Z,15.34
2022-09-23T14:21:06.486Z,15.31
2022-09-23T14:24:35.403Z,15.29
2022-09-23T14:27:37.186Z,15.25
2022-09-23T14:30:39.236Z,15.24
2022-09-23T14:33:42.782Z,15.23
2022-09-23T14:37:02.837Z,15.24
2022-09-23T14:40:10.528Z,15.22
2022-09-23T14:43:19.384Z,15.22
2022-09-23T14:46:23.460Z,15.20
2022-09-23T14:49:25.842Z,15.20
2022-09-23T14:52:27.517Z,15.17
2022-09-23T14:55:29.221Z,15.16
2022-09-23T14:58:30.896Z,15.14
2022-09-23T15:01:32.692Z,15.11
2022-09-23T15:04:35.482Z,15.12
2022-09-23T15:07:38.311Z,15.10
2022-09-23T15:10:40.360Z,15.09
2022-09-23T15:13:44.581Z,15.07
2022-09-23T15:16:48.060Z,15.09
2022-09-23T15:19:56.890Z,15.07
2022-09-23T15:22:58.514Z,15.07
2022-09-23T15:26:05.925Z,15.04
2022-09-23T15:29:11.281Z,15.04
2022-09-23T15:32:12.868Z,15.04
2022-09-23T15:35:19.982Z,15.03
2022-09-23T15:38:22.325Z,15.01
2022-09-23T15:41:24.424Z,15.00
2022-09-23T15:44:29.729Z,14.98
2022-09-23T15:47:31.677Z,14.97
2022-09-23T15:50:36.827Z,14.94
2022-09-23T15:53:38.494Z,14.92
2022-09-23T15:56:40.016Z,14.89
2022-09-23T15:59:41.516Z,14.87
2022-09-23T16:02:45.658Z,14.85
2022-09-23T16:05:49.195Z,14.82
2022-09-23T16:08:52.309Z,14.80
2022-09-23T16:11:54.398Z,14.76
2022-09-23T16:14:56.048Z,14.75
2022-09-23T16:17:58.631Z,14.73
2022-09-23T16:21:00.456Z,14.68
2022-09-23T16:24:02.211Z,14.64
2022-09-23T16:27:07.725Z,14.62
2022-09-23T16:30:10.311Z,14.59
2022-09-23T16:33:11.879Z,14.56
2022-09-23T16:36:31.645Z,14.52
2022-09-23T16:39:33.278Z,14.46
2022-09-23T16:42:35.090Z,14.43
2022-09-23T16:45:36.783Z,14.40
2022-09-23T16:48:40.588Z,14.36
2022-09-23T16:51:42.431Z,14.32
2022-09-23T16:54:45.447Z,14.28
2022-09-23T16:57:47.162Z,14.26
2022-09-23T17:01:07.616Z,14.21
2022-09-23T17:04:10.773Z,14.17
2022-09-23T17:07:12.705Z,14.13
2022-09-23T17:10:18.611Z,14.09
2022-09-23T17:13:20.254Z,14.06
2022-09-23T17:16:30.452Z,14.04
2022-09-23T17:19:33.883Z,14.05
2022-09-23T17:22:35.742Z,14.09
2022-09-23T17:25:37.342Z,14.11
2022-09-23T17:28:39.629Z,14.11
2022-09-23T17:31:41.335Z,14.13
2022-09-23T17:34:44.016Z,14.13
2022-09-23T17:37:48.880Z,14.15
2022-09-23T17:40:55.632Z,14.47
2022-09-23T17:43:58.554Z,14.43
2022-09-23T17:47:00.780Z,14.43
2022-09-23T17:50:02.417Z,14.38
2022-09-23T17:53:05.152Z,14.37
2022-09-23T17:56:29.926Z,14.35
2022-09-23T17:59:31.550Z,14.32
2022-09-23T18:02:33.337Z,14.32
2022-09-23T18:05:34.953Z,14.30
2022-09-23T18:08:37.269Z,14.29
2022-09-23T18:11:42.215Z,14.29
2022-09-23T18:14:45.385Z,14.27
2022-09-23T18:17:46.929Z,14.25
2022-09-23T18:20:48.556Z,14.23
2022-09-23T18:23:50.536Z,14.21
2022-09-23T18:26:52.921Z,14.19
2022-09-23T18:29:54.531Z,14.17
2022-09-23T18:32:56.299Z,14.16
2022-09-23T18:36:00.006Z,14.12
2022-09-23T18:39:01.781Z,14.11
2022-09-23T18:42:03.551Z,14.09
2022-09-23T18:45:05.662Z,14.11
2022-09-23T18:48:28.012Z,14.13
2022-09-23T18:51:30.777Z,14.09
2022-09-23T18:54:32.527Z,14.05
2022-09-23T18:57:34.168Z,14.02
2022-09-23T19:00:36.056Z,13.98
2022-09-23T19:03:37.757Z,13.96
2022-09-23T19:06:39.885Z,13.95
2022-09-23T19:09:42.063Z,13.94
2022-09-23T19:12:43.761Z,13.95
2022-09-23T19:15:46.976Z,13.93
2022-09-23T19:18:49.679Z,13.91
2022-09-23T19:21:51.290Z,13.88
2022-09-23T19:24:52.856Z,13.89
2022-09-23T19:27:54.570Z,13.87
2022-09-23T19:30:56.686Z,13.82
2022-09-23T19:34:01.425Z,13.77
2022-09-23T19:37:04.614Z,13.75
2022-09-23T19:40:06.935Z,13.72
2022-09-23T19:43:08.606Z,13.69
2022-09-23T19:46:10.321Z,13.66
2022-09-23T19:49:12.468Z,13.65
2022-09-23T19:52:14.035Z,13.65
2022-09-23T19:55:15.719Z,13.63
2022-09-23T19:58:17.333Z,13.60
2022-09-23T20:01:19.399Z,13.58
2022-09-23T20:04:21.298Z,13.55
2022-09-23T20:07:23.253Z,13.53
2022-09-23T20:10:26.150Z,13.51
2022-09-23T20:13:28.782Z,13.47
2022-09-23T20:16:33.329Z,13.47
2022-09-23T20:19:34.880Z,13.44
2022-09-23T20:22:36.905Z,13.40
2022-09-23T20:25:57.506Z,13.35
2022-09-23T20:29:02.391Z,13.30
2022-09-23T20:32:04.252Z,13.29
2022-09-23T20:35:06.618Z,13.25
2022-09-23T20:38:08.312Z,13.24
2022-09-23T20:41:10.163Z,13.22
2022-09-23T20:44:12.415Z,13.19
2022-09-23T20:47:16.342Z,13.15
2022-09-23T20:50:18.005Z,13.12
2022-09-23T20:53:22.161Z,13.09
2022-09-23T20:56:24.462Z,13.07
2022-09-23T20:59:27.296Z,13.05
2022-09-23T21:02:28.928Z,13.02
2022-09-23T21:05:30.596Z,12.99
2022-09-23T21:08:36.236Z,13.00
2022-09-23T21:11:38.256Z,13.01
2022-09-23T21:14:39.836Z,12.98
2022-09-23T21:17:41.372Z,12.97
2022-09-23T21:20:43.136Z,12.93
2022-09-23T21:23:45.797Z,12.90
2022-09-23T21:26:47.846Z,12.86
2022-09-23T21:29:49.387Z,12.85
2022-09-23T21:32:50.952Z,12.85
2022-09-23T21:35:56.466Z,12.85
2022-09-23T21:38:59.123Z,12.82
2022-09-23T21:42:01.533Z,12.82
2022-09-23T21:45:04.357Z,12.80
2022-09-23T21:48:05.848Z,12.81
2022-09-23T21:51:14.173Z,12.81
2022-09-23T21:54:16.961Z,12.82
2022-09-23T21:57:18.501Z,12.81
2022-09-23T22:00:20.118Z,12.81
2022-09-23T22:03:21.662Z,12.80
2022-09-23T22:06:27.725Z,12.79
2022-09-23T22:09:29.221Z,12.80
2022-09-23T22:12:30.816Z,12.79
2022-09-23T22:15:36.715Z,12.79
2022-09-23T22:18:38.249Z,12.76
2022-09-23T22:21:41.807Z,12.74
2022-09-23T22:24:46.939Z,12.72
2022-09-23T22:28:07.154Z,12.71
2022-09-23T22:31:27.879Z,12.67
2022-09-23T22:34:48.394Z,12.63
2022-09-23T22:37:51.102Z,12.56
2022-09-23T22:40:53.341Z,12.49
2022-09-23T22:43:55.874Z,12.45
2022-09-23T22:46:58.636Z,12.40
2022-09-23T22:50:00.764Z,12.36
2022-09-23T22:53:02.268Z,12.33
2022-09-23T22:56:03.794Z,12.28
2022-09-23T22:59:07.396Z,12.23
2022-09-23T23:02:09.031Z,12.19
2022-09-23T23:05:11.196Z,12.16
2022-09-23T23:08:16.991Z,12.14
2022-09-23T23:11:18.503Z,12.10
2022-09-23T23:14:20.446Z,12.07
2022-09-23T23:17:22.035Z,12.02
2022-09-23T23:20:23.746Z,11.96
2022-09-23T23:23:25.247Z,11.90
2022-09-23T23:26:29.100Z,11.87
2022-09-23T23:29:30.652Z,11.80
2022-09-23T23:32:32.333Z,11.76
2022-09-23T23:35:33.899Z,11.72
2022-09-23T23:38:40.295Z,11.71
2022-09-23T23:41:42.536Z,11.69
2022-09-23T23:44:44.552Z,11.68
2022-09-23T23:47:46.420Z,11.67
2022-09-23T23:50:59.084Z,11.65
2022-09-23T23:54:00.838Z,11.62
2022-09-23T23:57:02.413Z,11.61
